Current Conditions
Clear
Conditions



Pressure
1010.92 (hPa) - 29.85 (inHG)
Visibility

6.2 (miles) - 10.0 (km)
   Temperature
18  °C
64°F
11  °C
Dewpoint
64  %
 Humidity
   Wind Speed
5  mph
4  kts
8  km/h
2.2  m/s
   Wind Direction
 220°
South West
   Airport Data
EGTK
Location Oxford (Kidlington) Airport 16 mi (26km)
Metar :EGTK 041920Z 22004KT CAVOK 18/11 Q1011
Wed 4th August 19:20 pm
   Raw Metar Info
Raw METAR is the most common format in the world for the transmission of observational weather data. It is highly standardized through the International Civil Aviation Organization (ICAO), which allows it to be understood throughout most of the world.
   API Info
Data Provided by
https://www.checkwx.com/weather/
   © Info
CSS/SVG/PHP scripts were developed by weather34.com for use in the weather34 template © 2015-2021

Guide Info provided by Metar-Wikipedia